Time;durP1;ratioP1;P1;durP2;ratioP2;P2;SDS_P1;SDS_P2;PMS_P1;PMS_P2;Temp;Humidity;BMP_temperature;BMP_pressure;BME280_temperature;BME280_humidity;BME280_pressure;Samples;Min_cycle;Max_cycle;Signal;HPM_P1;HPM_P2
2022/08/15 00:00:26;;;;;;;5.18;2.90;;;23.10;76.00;;;;;;4985262;28;20065;-66
2022/08/15 00:02:53;;;;;;;5.53;3.15;;;23.10;76.40;;;;;;4987955;28;20023;-67
2022/08/15 00:05:22;;;;;;;5.95;3.13;;;23.10;77.00;;;;;;4984753;28;20031;-67
2022/08/15 00:07:48;;;;;;;7.43;3.03;;;23.10;76.80;;;;;;4985912;28;20026;-67
2022/08/15 00:10:15;;;;;;;6.13;3.50;;;23.10;77.70;;;;;;4997910;28;20142;-67
2022/08/15 00:12:41;;;;;;;6.75;2.85;;;23.10;76.80;;;;;;4982863;28;20419;-67
2022/08/15 00:15:13;;;;;;;4.00;2.80;;;23.10;76.30;;;;;;4985393;28;20064;-66
2022/08/15 00:17:40;;;;;;;5.13;2.97;;;23.00;75.40;;;;;;4987563;28;20018;-67
2022/08/15 00:20:08;;;;;;;6.90;3.08;;;23.00;75.20;;;;;;4981797;28;20050;-67
2022/08/15 00:22:34;;;;;;;5.78;2.92;;;22.90;75.20;;;;;;4983793;28;20018;-66
2022/08/15 00:25:00;;;;;;;5.72;3.13;;;22.90;75.10;;;;;;4986337;28;20046;-67
2022/08/15 00:27:26;;;;;;;5.75;2.75;;;22.90;75.30;;;;;;4983223;28;20029;-66
2022/08/15 00:29:53;;;;;;;4.35;2.72;;;22.90;75.60;;;;;;4989579;28;20037;-66
2022/08/15 00:32:23;;;;;;;6.30;2.65;;;22.90;75.80;;;;;;4984576;28;20026;-66
2022/08/15 00:34:50;;;;;;;5.28;2.65;;;22.80;76.10;;;;;;4985726;28;20038;-65
2022/08/15 00:37:17;;;;;;;7.55;3.10;;;22.80;76.30;;;;;;4986048;28;20034;-67
2022/08/15 00:39:44;;;;;;;6.07;3.00;;;22.80;77.00;;;;;;4988245;28;20026;-66
2022/08/15 00:42:11;;;;;;;5.32;2.60;;;22.70;78.10;;;;;;4988830;28;20033;-70
2022/08/15 00:44:45;;;;;;;4.35;2.90;;;22.70;78.60;;;;;;4989613;28;20027;-70
2022/08/15 00:47:15;;;;;;;7.97;3.22;;;22.60;79.30;;;;;;4989365;28;20030;-70
2022/08/15 00:49:43;;;;;;;6.38;2.90;;;22.60;80.40;;;;;;4991183;28;20097;-71
2022/08/15 00:52:26;;;;;;;5.60;3.45;;;22.50;81.70;;;;;;4988126;28;20074;-70
2022/08/15 00:55:03;;;;;;;9.30;3.17;;;22.50;82.70;;;;;;4989249;28;20038;-70
2022/08/15 00:57:31;;;;;;;7.40;3.53;;;22.50;83.70;;;;;;4988362;28;20054;-70
2022/08/15 01:00:01;;;;;;;7.45;3.17;;;22.40;84.40;;;;;;4986217;28;20030;-70
2022/08/15 01:02:33;;;;;;;4.45;2.95;;;22.40;84.40;;;;;;4993982;28;20625;-70
2022/08/15 01:05:02;;;;;;;4.30;3.20;;;22.30;85.10;;;;;;4987531;28;20519;-70
2022/08/15 01:07:28;;;;;;;4.85;2.80;;;22.30;85.10;;;;;;4998316;28;20022;-70
2022/08/15 01:09:54;;;;;;;10.10;3.80;;;22.20;85.60;;;;;;4988634;28;20037;-70
2022/08/15 01:12:23;;;;;;;5.22;3.10;;;22.20;85.40;;;;;;4990814;28;20092;-75
2022/08/15 01:14:58;;;;;;;11.07;3.05;;;22.20;85.00;;;;;;4990971;28;20057;-75
2022/08/15 01:17:28;;;;;;;5.30;3.15;;;22.20;84.70;;;;;;4987648;28;20069;-75
2022/08/15 01:20:02;;;;;;;6.00;3.33;;;22.20;84.70;;;;;;4988369;28;20023;-75
2022/08/15 01:22:45;;;;;;;8.52;3.20;;;22.20;84.70;;;;;;4983019;28;20022;-75
2022/08/15 01:25:19;;;;;;;6.32;3.78;;;22.10;85.10;;;;;;5000474;28;20125;-74
2022/08/15 01:28:07;;;;;;;6.15;3.08;;;22.10;84.40;;;;;;4987429;28;20025;-75
2022/08/15 01:30:41;;;;;;;5.55;3.58;;;22.00;84.00;;;;;;4984990;28;20034;-75
2022/08/15 01:33:08;;;;;;;4.70;2.97;;;21.90;84.70;;;;;;4978855;28;20476;-75
2022/08/15 01:35:34;;;;;;;6.22;3.10;;;22.00;85.00;;;;;;4988027;28;20027;-75
2022/08/15 01:38:03;;;;;;;9.55;3.70;;;21.90;84.90;;;;;;4991312;28;20050;-75
2022/08/15 01:40:39;;;;;;;5.90;3.58;;;21.90;84.50;;;;;;4987296;28;20027;-75
2022/08/15 01:43:07;;;;;;;7.13;2.72;;;21.90;84.30;;;;;;4988928;28;20037;-75
2022/08/15 01:45:34;;;;;;;5.70;3.20;;;21.90;84.10;;;;;;4989710;28;20420;-75
2022/08/15 01:48:17;;;;;;;5.47;3.08;;;21.90;83.70;;;;;;4986668;28;20022;-75
2022/08/15 01:50:49;;;;;;;7.57;3.63;;;21.90;84.10;;;;;;4987242;28;20057;-76
2022/08/15 01:53:21;;;;;;;6.10;2.90;;;21.90;84.40;;;;;;4987039;28;20058;-76
2022/08/15 01:56:03;;;;;;;6.75;3.10;;;21.90;84.60;;;;;;4987229;28;20077;-75
2022/08/15 01:58:29;;;;;;;5.80;2.80;;;21.90;84.50;;;;;;4985569;28;20035;-75
2022/08/15 02:01:03;;;;;;;5.70;2.72;;;21.90;84.50;;;;;;4986178;28;20053;-76
2022/08/15 02:03:35;;;;;;;5.57;3.03;;;21.90;84.30;;;;;;4988828;28;20041;-74
2022/08/15 02:06:15;;;;;;;4.22;3.10;;;21.90;84.30;;;;;;4984521;28;20054;-76
2022/08/15 02:08:43;;;;;;;7.07;2.95;;;21.90;83.70;;;;;;5005549;28;20447;-76
2022/08/15 02:11:17;;;;;;;4.07;2.92;;;21.90;83.50;;;;;;4985643;28;20033;-76
2022/08/15 02:13:44;;;;;;;3.85;2.70;;;21.90;83.50;;;;;;4986348;28;20030;-76
2022/08/15 02:16:13;;;;;;;4.72;3.28;;;21.90;83.70;;;;;;4985823;28;20431;-76
2022/08/15 02:18:39;;;;;;;4.45;2.88;;;21.90;84.60;;;;;;4988843;28;20534;-75
2022/08/15 02:21:05;;;;;;;5.78;3.17;;;21.90;84.10;;;;;;4988560;28;20041;-75
2022/08/15 02:23:31;;;;;;;7.68;3.30;;;21.90;84.10;;;;;;4983773;28;20034;-76
2022/08/15 02:25:57;;;;;;;4.47;3.00;;;21.90;84.00;;;;;;4989562;28;20034;-75
2022/08/15 02:28:24;;;;;;;6.30;3.03;;;21.90;83.70;;;;;;4989435;28;20057;-75
2022/08/15 02:30:52;;;;;;;4.40;3.00;;;21.90;83.60;;;;;;4986937;28;20077;-75
2022/08/15 02:33:18;;;;;;;7.18;2.60;;;21.90;83.50;;;;;;4992115;28;20033;-75
2022/08/15 02:35:43;;;;;;;3.92;2.60;;;21.80;83.70;;;;;;4987144;28;20022;-75
2022/08/15 02:38:09;;;;;;;5.32;3.03;;;21.80;84.00;;;;;;5004055;28;20133;-75
2022/08/15 02:40:35;;;;;;;3.65;2.83;;;21.80;84.20;;;;;;4986286;28;20026;-75
2022/08/15 02:43:12;;;;;;;4.68;2.75;;;21.80;84.40;;;;;;4985813;28;20537;-75
2022/08/15 02:45:39;;;;;;;3.95;2.78;;;21.70;84.60;;;;;;4986587;28;20392;-75
2022/08/15 02:48:07;;;;;;;4.97;2.95;;;21.70;84.80;;;;;;4985712;28;20022;-75
2022/08/15 02:50:34;;;;;;;4.50;2.58;;;21.70;85.00;;;;;;4989392;28;20026;-75
2022/08/15 02:53:09;;;;;;;5.82;2.90;;;21.70;85.10;;;;;;4988084;28;20109;-75
2022/08/15 02:55:35;;;;;;;4.13;2.42;;;21.70;85.40;;;;;;4984045;28;20034;-75
2022/08/15 02:58:00;;;;;;;3.15;2.30;;;21.60;85.60;;;;;;4987360;28;20026;-75
2022/08/15 03:00:27;;;;;;;3.13;2.38;;;21.60;86.60;;;;;;4978334;28;20031;-75
2022/08/15 03:03:01;;;;;;;3.55;2.45;;;21.50;87.50;;;;;;4985218;28;20046;-75
2022/08/15 03:05:29;;;;;;;2.90;2.20;;;21.50;88.60;;;;;;4986858;28;20507;-75
2022/08/15 03:07:56;;;;;;;4.97;2.60;;;21.50;89.60;;;;;;4989548;28;20038;-75
2022/08/15 03:10:22;;;;;;;4.78;2.28;;;21.50;90.80;;;;;;4987174;28;20053;-75
2022/08/15 03:13:00;;;;;;;5.15;2.28;;;21.40;90.70;;;;;;4988459;28;20122;-75
2022/08/15 03:15:31;;;;;;;3.58;2.38;;;21.40;91.00;;;;;;4984907;28;20394;-75
2022/08/15 03:17:58;;;;;;;6.30;2.38;;;21.40;91.20;;;;;;5004875;28;20118;-75
2022/08/15 03:20:24;;;;;;;3.00;2.10;;;21.40;91.40;;;;;;4988316;28;20271;-75
2022/08/15 03:22:52;;;;;;;4.70;2.70;;;21.40;91.60;;;;;;4987981;28;20022;-75
2022/08/15 03:25:20;;;;;;;4.57;2.22;;;21.40;91.80;;;;;;4982437;28;20542;-75
2022/08/15 03:27:45;;;;;;;5.90;2.53;;;21.30;92.10;;;;;;4996409;28;20019;-75
2022/08/15 03:30:14;;;;;;;3.88;2.42;;;21.30;92.60;;;;;;4984846;28;20035;-75
2022/08/15 03:32:48;;;;;;;4.97;2.50;;;21.30;92.90;;;;;;5001420;28;20027;-75
2022/08/15 03:35:15;;;;;;;4.35;2.65;;;21.30;92.90;;;;;;4985915;28;20026;-75
2022/08/15 03:37:42;;;;;;;5.47;2.40;;;21.30;93.10;;;;;;4987307;28;20038;-75
2022/08/15 03:40:08;;;;;;;3.35;3.03;;;21.20;93.10;;;;;;4988185;28;20030;-75
2022/08/15 03:42:34;;;;;;;6.88;2.92;;;21.20;93.00;;;;;;4987959;28;20507;-75
2022/08/15 03:45:02;;;;;;;3.63;2.17;;;21.20;93.00;;;;;;4987072;28;20060;-75
2022/08/15 03:47:29;;;;;;;4.30;2.22;;;21.20;92.90;;;;;;4988020;28;20023;-75
2022/08/15 03:49:56;;;;;;;4.03;2.25;;;21.20;93.00;;;;;;4984817;28;20113;-75
2022/08/15 03:52:21;;;;;;;2.33;1.75;;;21.20;92.80;;;;;;4988599;28;20034;-75
2022/08/15 03:54:47;;;;;;;3.28;2.15;;;21.20;92.50;;;;;;4984470;28;20034;-75
2022/08/15 03:57:13;;;;;;;3.67;2.10;;;21.20;92.50;;;;;;4991107;28;20030;-75
2022/08/15 03:59:38;;;;;;;4.57;2.20;;;21.20;92.60;;;;;;4986973;28;20109;-74
2022/08/15 04:02:08;;;;;;;3.88;2.03;;;21.20;92.60;;;;;;4985955;28;20029;-75
2022/08/15 04:04:34;;;;;;;2.95;2.05;;;21.20;92.50;;;;;;4987097;28;20034;-74
2022/08/15 04:06:59;;;;;;;3.83;2.13;;;21.20;92.30;;;;;;4983226;28;20542;-75
2022/08/15 04:09:25;;;;;;;5.22;2.05;;;21.20;92.80;;;;;;4986475;28;20042;-75
2022/08/15 04:11:51;;;;;;;4.85;2.30;;;21.20;93.40;;;;;;4989107;28;20037;-75
2022/08/15 04:14:16;;;;;;;4.07;2.00;;;21.20;93.60;;;;;;4993493;28;20562;-75
2022/08/15 04:16:42;;;;;;;4.72;2.00;;;21.20;94.20;;;;;;4988669;28;20030;-75
2022/08/15 04:19:08;;;;;;;6.47;2.40;;;21.10;94.40;;;;;;4989094;28;20034;-75
2022/08/15 04:21:34;;;;;;;3.45;2.22;;;21.10;94.60;;;;;;4991568;28;20157;-75
2022/08/15 04:24:00;;;;;;;3.63;2.38;;;21.10;94.90;;;;;;4989538;28;20026;-75
2022/08/15 04:26:25;;;;;;;4.88;1.92;;;21.10;94.70;;;;;;4990998;28;20029;-75
2022/08/15 04:28:51;;;;;;;4.15;1.80;;;21.10;94.10;;;;;;4986216;28;20089;-75
2022/08/15 04:31:19;;;;;;;2.92;2.03;;;21.10;94.00;;;;;;4990901;28;20038;-74
2022/08/15 04:33:46;;;;;;;4.15;1.90;;;21.00;94.10;;;;;;4983424;28;20030;-76
2022/08/15 04:36:13;;;;;;;5.57;2.10;;;21.00;94.00;;;;;;4982637;28;20085;-76
2022/08/15 04:38:42;;;;;;;3.45;2.00;;;21.00;94.00;;;;;;4992971;28;20031;-76
2022/08/15 04:41:09;;;;;;;3.08;1.80;;;21.00;94.00;;;;;;4989950;28;20018;-75
2022/08/15 04:43:37;;;;;;;7.28;2.53;;;21.00;94.10;;;;;;4990382;28;20026;-76
2022/08/15 04:46:03;;;;;;;5.15;1.83;;;21.00;94.60;;;;;;4986397;28;20037;-75
2022/08/15 04:48:30;;;;;;;2.85;1.85;;;21.00;94.60;;;;;;4986008;28;20030;-76
2022/08/15 04:50:58;;;;;;;4.45;2.05;;;21.00;94.30;;;;;;4985313;28;20034;-75
2022/08/15 04:53:28;;;;;;;1.88;1.40;;;21.00;94.00;;;;;;4989410;28;20034;-75
2022/08/15 04:55:55;;;;;;;7.50;2.88;;;21.00;94.00;;;;;;4987613;28;20042;-76
2022/08/15 04:58:21;;;;;;;2.97;1.90;;;21.00;94.50;;;;;;4985767;28;20101;-76
2022/08/15 05:00:58;;;;;;;3.88;2.03;;;20.90;94.60;;;;;;4986858;28;20446;-71
2022/08/15 05:03:25;;;;;;;3.90;1.90;;;20.90;94.80;;;;;;4994222;28;20026;-72
2022/08/15 05:05:57;;;;;;;4.15;2.30;;;21.00;93.70;;;;;;4994311;28;20057;-72
2022/08/15 05:08:27;;;;;;;2.33;1.60;;;21.00;93.50;;;;;;4987989;28;20062;-73
2022/08/15 05:11:14;;;;;;;5.05;1.92;;;21.10;93.10;;;;;;4984870;28;20038;-73
2022/08/15 05:13:41;;;;;;;4.15;1.90;;;21.10;93.00;;;;;;4990792;28;20045;-73
2022/08/15 05:16:08;;;;;;;7.57;2.03;;;21.10;92.80;;;;;;4990706;28;20042;-72
2022/08/15 05:18:40;;;;;;;4.72;1.90;;;21.20;92.70;;;;;;4985859;28;20026;-73
2022/08/15 05:21:07;;;;;;;7.70;1.90;;;21.20;92.50;;;;;;4989874;28;20162;-73
2022/08/15 05:23:33;;;;;;;4.93;1.90;;;21.20;92.50;;;;;;4991694;28;20019;-73
2022/08/15 05:26:01;;;;;;;5.70;1.60;;;21.20;92.50;;;;;;4988475;28;20035;-71
2022/08/15 05:28:26;;;;;;;3.35;1.52;;;21.20;92.30;;;;;;4990694;28;20157;-71
2022/08/15 05:30:56;;;;;;;5.13;2.10;;;21.20;92.30;;;;;;4991427;28;20113;-70
2022/08/15 05:33:25;;;;;;;5.00;1.48;;;21.20;92.30;;;;;;4989190;28;20159;-74
2022/08/15 05:35:57;;;;;;;5.32;1.90;;;21.20;92.10;;;;;;4992740;28;20034;-72
2022/08/15 05:38:32;;;;;;;3.80;1.80;;;21.20;91.90;;;;;;4990213;28;20046;-72
2022/08/15 05:41:01;;;;;;;4.05;1.77;;;21.20;91.90;;;;;;4989943;28;20026;-72
2022/08/15 05:43:41;;;;;;;6.72;1.90;;;21.30;91.50;;;;;;4996940;28;20149;-72
2022/08/15 05:46:16;;;;;;;2.38;1.58;;;21.30;91.40;;;;;;4994747;28;20035;-74
2022/08/15 05:48:47;;;;;;;4.25;1.92;;;21.30;91.00;;;;;;4996756;28;20022;-73
2022/08/15 05:51:20;;;;;;;4.25;1.88;;;21.30;91.10;;;;;;4995583;28;20034;-73
2022/08/15 05:54:16;;;;;;;4.65;2.15;;;21.30;91.10;;;;;;4994637;28;20031;-77
2022/08/15 05:57:01;;;;;;;3.38;1.67;;;21.40;90.90;;;;;;4987748;28;20018;-76
2022/08/15 05:59:50;;;;;;;4.10;1.52;;;21.40;90.90;;;;;;4983306;28;20030;-76
2022/08/15 06:02:28;;;;;;;2.83;1.88;;;21.40;90.80;;;;;;4988548;28;20044;-76
2022/08/15 06:05:13;;;;;;;2.88;1.52;;;21.40;90.80;;;;;;4983811;28;20023;-76
2022/08/15 06:07:43;;;;;;;2.80;1.42;;;21.50;90.50;;;;;;4988331;28;24054;-76
2022/08/15 06:10:22;;;;;;;4.88;1.98;;;21.50;90.30;;;;;;4992291;28;20089;-77
2022/08/15 06:12:50;;;;;;;3.90;1.80;;;21.50;90.20;;;;;;4985788;28;20458;-77
2022/08/15 06:15:19;;;;;;;2.95;1.80;;;21.40;90.10;;;;;;4986575;28;20037;-77
2022/08/15 06:17:52;;;;;;;2.63;1.40;;;21.40;90.10;;;;;;4988377;28;20089;-77
2022/08/15 06:20:20;;;;;;;5.63;1.50;;;21.40;90.20;;;;;;4994412;28;20451;-77
2022/08/15 06:22:58;;;;;;;2.38;1.33;;;21.40;90.30;;;;;;5005501;28;20072;-78
2022/08/15 06:25:48;;;;;;;2.60;1.50;;;21.40;90.20;;;;;;4987778;28;20030;-77
2022/08/15 06:28:37;;;;;;;3.05;2.20;;;21.60;90.00;;;;;;4987795;28;20057;-79
2022/08/15 06:31:31;;;;;;;7.22;1.80;;;21.70;90.00;;;;;;4987957;28;20057;-77
2022/08/15 06:34:24;;;;;;;2.85;1.73;;;21.90;89.60;;;;;;4992436;28;20054;-78
2022/08/15 06:37:02;;;;;;;4.10;1.45;;;22.00;88.70;;;;;;4987157;28;20121;-77
2022/08/15 06:39:46;;;;;;;2.50;1.50;;;22.10;88.20;;;;;;4987401;28;20058;-78
2022/08/15 06:42:29;;;;;;;4.63;1.50;;;22.20;87.50;;;;;;5015611;22;20076;-73
2022/08/15 06:44:58;;;;;;;2.90;1.73;;;22.30;87.10;;;;;;4984151;28;20509;-75
2022/08/15 06:47:28;;;;;;;3.60;1.60;;;22.40;86.60;;;;;;4984123;28;20025;-75
2022/08/15 06:49:57;;;;;;;3.47;1.15;;;22.50;86.10;;;;;;4991017;28;20115;-75
2022/08/15 06:52:24;;;;;;;1.70;1.25;;;22.50;85.20;;;;;;4988959;28;20034;-75
2022/08/15 06:54:49;;;;;;;1.50;1.20;;;22.60;85.20;;;;;;4985800;28;20031;-75
2022/08/15 06:57:49;;;;;;;3.60;1.63;;;22.60;84.90;;;;;;4986990;28;20084;-75
2022/08/15 07:00:39;;;;;;;1.90;1.38;;;22.70;85.10;;;;;;4983800;28;20604;-75
2022/08/15 07:03:30;;;;;;;3.45;1.92;;;22.70;84.80;;;;;;4986427;28;20029;-75
2022/08/15 07:05:57;;;;;;;2.47;1.85;;;22.80;84.80;;;;;;4983446;28;20030;-75
2022/08/15 07:08:41;;;;;;;2.83;1.17;;;22.80;84.70;;;;;;4985572;28;20057;-75
2022/08/15 07:11:20;;;;;;;3.35;1.92;;;22.90;85.00;;;;;;4982837;28;20032;-75
2022/08/15 07:14:17;;;;;;;2.83;1.40;;;22.90;83.70;;;;;;4984791;28;20038;-75
2022/08/15 07:17:03;;;;;;;2.85;1.35;;;23.00;83.00;;;;;;4988941;28;20030;-76
2022/08/15 07:19:29;;;;;;;4.88;1.60;;;23.10;82.60;;;;;;4985103;28;20066;-76
2022/08/15 07:21:55;;;;;;;2.17;1.20;;;23.10;82.40;;;;;;4985858;28;20088;-75
2022/08/15 07:24:27;;;;;;;2.10;1.20;;;23.20;81.50;;;;;;4985991;28;20467;-76
2022/08/15 07:26:54;;;;;;;2.25;1.10;;;23.20;80.50;;;;;;4977787;28;20034;-76
2022/08/15 07:29:38;;;;;;;2.15;1.30;;;23.20;79.10;;;;;;4979560;28;20023;-76
2022/08/15 07:32:12;;;;;;;1.52;0.90;;;23.20;78.50;;;;;;4983262;28;20250;-76
2022/08/15 07:34:54;;;;;;;1.75;1.10;;;23.30;78.10;;;;;;4987980;28;20040;-76
2022/08/15 07:37:22;;;;;;;1.80;1.23;;;23.30;77.10;;;;;;4983323;28;20073;-75
2022/08/15 07:40:21;;;;;;;2.80;1.25;;;23.30;77.20;;;;;;4983649;28;20113;-76
2022/08/15 07:42:48;;;;;;;2.85;1.40;;;23.30;76.60;;;;;;4992124;28;20089;-75
2022/08/15 07:45:39;;;;;;;1.42;1.23;;;23.30;76.20;;;;;;4987388;28;20018;-76
2022/08/15 07:48:26;;;;;;;3.17;1.10;;;23.30;76.30;;;;;;4986182;28;20049;-75
2022/08/15 07:51:07;;;;;;;2.65;1.52;;;23.40;76.60;;;;;;4974352;28;20030;-74
2022/08/15 07:53:33;;;;;;;4.43;1.30;;;23.50;76.40;;;;;;4976927;28;20121;-74
2022/08/15 07:56:04;;;;;;;2.83;1.23;;;23.50;76.40;;;;;;4982571;28;20165;-74
2022/08/15 07:58:32;;;;;;;3.58;1.27;;;23.60;76.60;;;;;;4982902;28;20030;-75
2022/08/15 08:01:27;;;;;;;1.75;1.30;;;23.60;77.00;;;;;;4978985;28;20026;-74
2022/08/15 08:04:05;;;;;;;4.35;1.40;;;23.70;77.40;;;;;;4983977;28;20510;-75
2022/08/15 08:07:00;;;;;;;2.35;1.50;;;23.70;77.30;;;;;;4986980;28;20383;-75
2022/08/15 08:09:33;;;;;;;3.53;1.27;;;23.60;77.40;;;;;;4988849;28;20042;-75
2022/08/15 08:12:14;;;;;;;3.92;1.48;;;23.80;77.70;;;;;;4984709;28;20481;-75
2022/08/15 08:15:17;;;;;;;2.13;1.30;;;23.70;77.90;;;;;;4983656;28;20033;-74
2022/08/15 08:17:46;;;;;;;5.28;1.52;;;23.80;77.40;;;;;;4997823;28;20026;-74
2022/08/15 08:20:36;;;;;;;3.15;1.65;;;23.80;76.70;;;;;;4987112;28;20548;-75
2022/08/15 08:23:17;;;;;;;2.22;1.73;;;23.90;76.50;;;;;;4991202;28;20044;-73
2022/08/15 08:26:01;;;;;;;3.72;1.52;;;23.90;76.70;;;;;;4982385;28;20080;-74
2022/08/15 08:28:33;;;;;;;4.78;1.80;;;23.90;76.80;;;;;;4986880;28;20027;-74
2022/08/15 08:31:26;;;;;;;3.28;1.25;;;23.90;76.40;;;;;;4984256;28;20035;-75
2022/08/15 08:34:06;;;;;;;2.63;1.63;;;24.00;76.50;;;;;;4965518;28;20038;-73
2022/08/15 08:36:46;;;;;;;5.72;1.55;;;24.10;76.40;;;;;;4981944;28;20027;-75
2022/08/15 08:39:18;;;;;;;2.65;1.30;;;24.10;76.10;;;;;;4983031;28;20034;-75
2022/08/15 08:41:49;;;;;;;3.97;1.55;;;24.10;74.80;;;;;;4986624;28;20022;-75
2022/08/15 08:44:39;;;;;;;1.60;1.48;;;24.20;74.60;;;;;;4987800;28;20117;-75
2022/08/15 08:47:23;;;;;;;2.40;1.35;;;24.30;72.70;;;;;;4976717;28;20096;-75
2022/08/15 08:50:04;;;;;;;2.35;1.63;;;24.30;72.50;;;;;;4979553;28;20488;-74
2022/08/15 08:52:39;;;;;;;1.33;1.20;;;24.30;72.20;;;;;;4985051;28;20022;-74
2022/08/15 08:55:10;;;;;;;3.60;1.52;;;24.40;71.60;;;;;;4984710;28;20042;-74
2022/08/15 08:57:43;;;;;;;3.35;1.30;;;24.40;71.70;;;;;;4984376;28;20027;-75
2022/08/15 09:00:15;;;;;;;3.47;1.50;;;24.50;71.00;;;;;;4990850;28;20038;-74
2022/08/15 09:02:46;;;;;;;2.60;1.20;;;24.60;70.50;;;;;;4989144;28;20029;-75
2022/08/15 09:05:24;;;;;;;2.40;1.35;;;24.60;69.70;;;;;;4990089;28;20038;-74
2022/08/15 09:07:56;;;;;;;4.68;1.15;;;24.70;69.10;;;;;;4988488;28;20558;-75
2022/08/15 09:10:34;;;;;;;2.17;1.10;;;24.70;68.70;;;;;;4992361;28;20030;-74
2022/08/15 09:15:50;;;;;;;2.47;0.95;;;24.90;68.30;;;;;;4988463;28;20053;-73
2022/08/15 09:18:27;;;;;;;3.53;1.60;;;24.90;67.80;;;;;;4986102;28;20049;-74
2022/08/15 09:20:53;;;;;;;2.42;1.35;;;25.00;67.90;;;;;;4989404;28;20495;-74
2022/08/15 09:23:20;;;;;;;2.90;1.50;;;25.00;67.40;;;;;;4982013;28;20022;-75
2022/08/15 09:26:27;;;;;;;2.28;1.30;;;25.10;67.40;;;;;;4987891;28;20022;-74
2022/08/15 09:29:18;;;;;;;2.10;1.50;;;25.20;66.60;;;;;;5007203;28;20029;-74
2022/08/15 09:31:57;;;;;;;2.30;1.33;;;25.20;66.50;;;;;;4989725;28;20041;-74
2022/08/15 09:35:05;;;;;;;4.18;1.77;;;25.20;66.30;;;;;;4989476;28;20034;-73
2022/08/15 09:37:49;;;;;;;2.70;1.65;;;25.20;66.70;;;;;;4979306;28;20038;-74
2022/08/15 09:40:45;;;;;;;5.03;1.27;;;25.10;66.40;;;;;;4985048;28;20093;-74
2022/08/15 09:43:30;;;;;;;4.28;1.48;;;25.10;66.50;;;;;;4999716;28;20050;-74
2022/08/15 09:46:05;;;;;;;3.00;1.20;;;25.00;66.80;;;;;;4989002;28;20030;-74
2022/08/15 09:48:42;;;;;;;2.83;1.50;;;24.90;66.40;;;;;;4983793;28;20023;-75
2022/08/15 09:51:20;;;;;;;2.17;1.67;;;24.80;65.70;;;;;;4989273;28;20121;-75
2022/08/15 09:54:00;;;;;;;2.45;1.50;;;24.90;65.50;;;;;;4981548;28;20044;-75
2022/08/15 09:56:26;;;;;;;2.65;1.30;;;24.90;65.90;;;;;;4991771;28;20033;-75
2022/08/15 09:59:21;;;;;;;3.67;1.50;;;24.90;66.20;;;;;;4988129;28;20582;-74
2022/08/15 10:01:59;;;;;;;2.05;1.65;;;24.90;65.40;;;;;;4998922;28;20125;-74
2022/08/15 10:04:40;;;;;;;2.60;1.73;;;25.00;65.60;;;;;;4986996;28;20026;-75
2022/08/15 10:07:09;;;;;;;1.65;1.23;;;25.10;65.90;;;;;;4982231;28;20031;-75
2022/08/15 10:09:40;;;;;;;3.33;1.58;;;25.20;65.00;;;;;;4983396;28;20034;-74
2022/08/15 10:12:06;;;;;;;2.58;1.70;;;25.20;64.40;;;;;;4978456;28;20545;-75
2022/08/15 10:14:53;;;;;;;3.17;1.40;;;25.30;64.60;;;;;;4983239;28;20060;-75
2022/08/15 10:17:37;;;;;;;2.75;1.70;;;25.40;64.50;;;;;;4984210;28;20058;-75
2022/08/15 10:20:17;;;;;;;2.53;1.67;;;25.50;64.70;;;;;;4996878;28;20165;-75
2022/08/15 10:22:52;;;;;;;3.67;1.67;;;25.60;64.30;;;;;;4982969;28;20022;-74
2022/08/15 10:25:38;;;;;;;4.15;2.15;;;25.70;64.40;;;;;;4978230;28;20026;-74
2022/08/15 10:28:10;;;;;;;2.75;1.38;;;25.70;64.40;;;;;;4983644;28;20026;-74
2022/08/15 10:30:36;;;;;;;2.40;1.52;;;25.70;64.60;;;;;;4987252;28;20038;-75
2022/08/15 10:33:28;;;;;;;8.50;1.77;;;25.70;62.70;;;;;;4984777;28;20033;-74
2022/08/15 10:36:03;;;;;;;3.03;1.85;;;25.70;63.40;;;;;;4987314;28;20026;-74
2022/08/15 10:38:30;;;;;;;2.35;1.73;;;25.80;64.30;;;;;;4992315;28;20033;-74
2022/08/15 10:41:25;;;;;;;3.60;1.60;;;25.80;64.20;;;;;;4992281;28;20117;-74
2022/08/15 10:44:36;;;;;;;3.33;1.77;;;25.80;63.80;;;;;;4988789;28;20029;-74
2022/08/15 10:47:33;;;;;;;2.70;1.70;;;25.90;63.40;;;;;;4985723;28;20023;-74
2022/08/15 10:50:04;;;;;;;3.75;1.98;;;25.80;62.70;;;;;;4987335;28;20037;-74
2022/08/15 10:52:48;;;;;;;5.32;1.90;;;25.80;62.80;;;;;;4986840;28;20501;-74
2022/08/15 10:55:43;;;;;;;2.03;1.65;;;25.70;62.80;;;;;;4983998;28;20026;-75
2022/08/15 10:58:14;;;;;;;2.78;2.10;;;25.80;62.50;;;;;;4991182;28;20130;-74
2022/08/15 11:00:53;;;;;;;3.60;2.15;;;25.80;62.20;;;;;;4985693;28;20056;-75
2022/08/15 11:03:23;;;;;;;3.25;2.03;;;25.80;61.80;;;;;;4988188;28;20101;-75
2022/08/15 11:05:58;;;;;;;4.22;1.85;;;25.80;61.80;;;;;;4982925;28;20022;-74
2022/08/15 11:08:24;;;;;;;3.45;2.15;;;25.80;61.90;;;;;;4988802;28;20026;-74
2022/08/15 11:10:50;;;;;;;1.77;1.60;;;25.90;62.00;;;;;;4988406;28;20069;-74
2022/08/15 11:13:21;;;;;;;4.28;2.00;;;26.00;61.80;;;;;;4984512;28;20038;-75
2022/08/15 11:15:56;;;;;;;2.38;1.70;;;26.00;61.80;;;;;;4987274;28;20491;-75
2022/08/15 11:18:47;;;;;;;4.90;1.80;;;26.10;61.50;;;;;;4988918;28;20095;-74
2022/08/15 11:21:26;;;;;;;4.65;1.90;;;26.10;61.30;;;;;;4985190;28;20378;-75
2022/08/15 11:23:57;;;;;;;3.88;2.05;;;26.20;61.50;;;;;;4975627;28;20092;-75
2022/08/15 11:26:27;;;;;;;3.53;1.70;;;26.20;61.30;;;;;;4982623;28;20042;-75
2022/08/15 11:29:10;;;;;;;2.63;1.75;;;26.20;61.30;;;;;;4988632;28;20045;-75
2022/08/15 11:31:52;;;;;;;3.88;1.80;;;26.30;60.40;;;;;;4983841;28;20440;-75
2022/08/15 11:34:28;;;;;;;3.15;1.63;;;26.50;60.30;;;;;;4988477;28;20483;-75
2022/08/15 11:37:08;;;;;;;2.28;1.85;;;26.50;60.00;;;;;;4983663;28;20384;-74
2022/08/15 11:39:40;;;;;;;1.90;1.52;;;26.60;59.90;;;;;;4989686;28;20073;-74
2022/08/15 11:42:10;;;;;;;3.72;1.73;;;26.60;59.80;;;;;;4987812;28;20061;-74
2022/08/15 11:44:44;;;;;;;2.70;2.00;;;26.80;59.50;;;;;;4984470;28;20517;-73
2022/08/15 11:47:16;;;;;;;3.00;1.80;;;26.80;59.10;;;;;;4991278;28;20035;-74
2022/08/15 11:49:55;;;;;;;2.60;1.85;;;26.90;59.00;;;;;;4991341;28;20290;-75
2022/08/15 11:52:29;;;;;;;3.67;2.03;;;26.90;58.80;;;;;;4986634;28;20069;-74
2022/08/15 11:55:15;;;;;;;1.95;1.70;;;26.90;58.40;;;;;;4982604;28;20043;-75
2022/08/15 11:57:43;;;;;;;3.38;2.20;;;26.90;58.40;;;;;;4984931;28;20034;-75
2022/08/15 12:00:41;;;;;;;2.90;2.05;;;26.90;58.80;;;;;;4984498;28;20030;-75
2022/08/15 12:03:32;;;;;;;2.65;1.90;;;26.90;58.80;;;;;;4983966;28;20038;-74
2022/08/15 12:06:13;;;;;;;3.63;1.95;;;26.80;58.90;;;;;;4987089;28;20027;-75
2022/08/15 12:08:44;;;;;;;2.75;2.00;;;26.80;58.70;;;;;;4985760;28;20054;-74
2022/08/15 12:11:13;;;;;;;3.17;1.85;;;26.80;58.60;;;;;;4984076;28;20045;-74
2022/08/15 12:13:52;;;;;;;3.33;2.55;;;26.80;58.40;;;;;;4984509;28;20487;-74
2022/08/15 12:16:31;;;;;;;5.03;2.20;;;26.80;58.40;;;;;;4986038;28;20080;-74
2022/08/15 12:18:58;;;;;;;5.07;2.47;;;26.90;58.70;;;;;;4982705;28;20073;-75
2022/08/15 12:21:24;;;;;;;4.72;2.20;;;26.80;58.70;;;;;;4987794;28;20026;-74
2022/08/15 12:23:56;;;;;;;4.20;2.05;;;26.90;58.60;;;;;;4987365;28;20029;-74
2022/08/15 12:26:26;;;;;;;3.47;2.17;;;26.90;58.40;;;;;;4988768;28;20030;-75
2022/08/15 12:28:54;;;;;;;6.40;2.17;;;27.10;58.70;;;;;;4985921;28;20368;-75
2022/08/15 12:31:27;;;;;;;3.03;1.88;;;27.20;58.30;;;;;;4986736;28;20026;-75
2022/08/15 12:34:12;;;;;;;3.63;2.20;;;27.40;58.10;;;;;;4988857;28;20414;-75
2022/08/15 12:36:44;;;;;;;4.75;1.98;;;27.60;57.40;;;;;;4990619;28;20030;-75
2022/08/15 12:39:14;;;;;;;4.95;2.25;;;27.70;57.30;;;;;;4990346;28;20026;-75
2022/08/15 12:41:43;;;;;;;3.55;2.35;;;27.80;57.10;;;;;;4998874;23;20050;-78
2022/08/15 12:44:23;;;;;;;4.10;2.22;;;27.80;56.60;;;;;;5021313;28;20079;-78
2022/08/15 12:46:50;;;;;;;4.40;2.33;;;27.90;56.50;;;;;;5026382;28;20064;-78
2022/08/15 12:49:16;;;;;;;3.65;2.42;;;27.90;56.50;;;;;;5028381;28;20096;-78
2022/08/15 12:51:42;;;;;;;5.43;2.58;;;27.90;56.60;;;;;;5019831;28;20030;-78
2022/08/15 12:54:07;;;;;;;3.15;2.10;;;27.90;57.00;;;;;;4998530;28;20535;-78
2022/08/15 12:56:33;;;;;;;3.30;2.33;;;27.90;56.10;;;;;;4997026;28;20033;-78
2022/08/15 12:59:01;;;;;;;4.43;2.30;;;28.00;55.90;;;;;;5017919;28;20049;-77
2022/08/15 13:01:27;;;;;;;5.80;2.30;;;28.00;56.00;;;;;;5009768;28;20018;-77
2022/08/15 13:03:53;;;;;;;3.00;2.47;;;27.90;55.60;;;;;;5010597;28;20029;-78
2022/08/15 13:06:28;;;;;;;3.03;2.05;;;27.90;56.10;;;;;;5009253;28;20022;-78
2022/08/15 13:08:54;;;;;;;2.88;2.00;;;27.80;56.40;;;;;;5007536;28;20109;-77
2022/08/15 13:11:21;;;;;;;6.57;2.53;;;27.80;56.70;;;;;;5011962;28;20033;-78
2022/08/15 13:13:48;;;;;;;5.43;1.92;;;27.80;57.40;;;;;;5026256;28;20029;-78
2022/08/15 13:16:16;;;;;;;8.00;2.65;;;27.90;56.60;;;;;;5023059;28;20088;-78
2022/08/15 13:18:41;;;;;;;5.20;2.97;;;27.90;56.40;;;;;;5009814;28;20071;-77
2022/08/15 13:23:54;;;;;;;3.35;2.20;;;27.80;55.70;;;;;;5007708;28;20033;-78
2022/08/15 13:26:22;;;;;;;4.53;2.47;;;27.80;55.90;;;;;;5010925;28;20285;-77